sensor_id;sensor_type;location;lat;lon;timestamp;temperature;humidity
60473;DHT22;46318;52.716;6.444;2023-01-19T00:00:15;2.90;99.90
60473;DHT22;46318;52.716;6.444;2023-01-19T00:02:42;2.90;99.90
60473;DHT22;46318;52.716;6.444;2023-01-19T00:05:12;2.90;99.90
60473;DHT22;46318;52.716;6.444;2023-01-19T00:07:38;2.90;99.90
60473;DHT22;46318;52.716;6.444;2023-01-19T00:10:05;2.80;99.90
60473;DHT22;46318;52.716;6.444;2023-01-19T00:12:32;2.80;99.90
60473;DHT22;46318;52.716;6.444;2023-01-19T00:14:58;2.80;99.90
60473;DHT22;46318;52.716;6.444;2023-01-19T00:17:24;2.80;99.90
60473;DHT22;46318;52.716;6.444;2023-01-19T00:19:50;2.80;99.90
60473;DHT22;46318;52.716;6.444;2023-01-19T00:22:16;2.80;99.90
60473;DHT22;46318;52.716;6.444;2023-01-19T00:24:42;2.80;99.90
60473;DHT22;46318;52.716;6.444;2023-01-19T00:27:08;2.80;99.90
60473;DHT22;46318;52.716;6.444;2023-01-19T00:29:34;2.70;99.90
60473;DHT22;46318;52.716;6.444;2023-01-19T00:32:01;2.70;99.90
60473;DHT22;46318;52.716;6.444;2023-01-19T00:34:30;2.70;99.90
60473;DHT22;46318;52.716;6.444;2023-01-19T00:37:06;2.70;99.90
60473;DHT22;46318;52.716;6.444;2023-01-19T00:39:32;2.60;99.90
60473;DHT22;46318;52.716;6.444;2023-01-19T00:41:57;2.60;99.90
60473;DHT22;46318;52.716;6.444;2023-01-19T00:44:42;2.60;99.90
60473;DHT22;46318;52.716;6.444;2023-01-19T00:47:08;2.60;99.90
60473;DHT22;46318;52.716;6.444;2023-01-19T00:49:34;2.60;99.90
60473;DHT22;46318;52.716;6.444;2023-01-19T00:52:00;2.50;99.90
60473;DHT22;46318;52.716;6.444;2023-01-19T00:54:25;2.50;99.90
60473;DHT22;46318;52.716;6.444;2023-01-19T00:56:51;2.50;99.90
60473;DHT22;46318;52.716;6.444;2023-01-19T00:59:17;2.50;99.90
60473;DHT22;46318;52.716;6.444;2023-01-19T01:01:43;2.40;99.90
60473;DHT22;46318;52.716;6.444;2023-01-19T01:04:09;2.40;99.90
60473;DHT22;46318;52.716;6.444;2023-01-19T01:06:38;2.40;99.90
60473;DHT22;46318;52.716;6.444;2023-01-19T01:09:04;2.40;99.90
60473;DHT22;46318;52.716;6.444;2023-01-19T01:11:40;2.40;99.90
60473;DHT22;46318;52.716;6.444;2023-01-19T01:14:08;2.40;99.90
60473;DHT22;46318;52.716;6.444;2023-01-19T01:16:35;2.40;99.90
60473;DHT22;46318;52.716;6.444;2023-01-19T01:19:01;2.30;99.90
60473;DHT22;46318;52.716;6.444;2023-01-19T01:21:27;2.30;99.90
60473;DHT22;46318;52.716;6.444;2023-01-19T01:23:53;2.30;99.90
60473;DHT22;46318;52.716;6.444;2023-01-19T01:26:19;2.30;99.90
60473;DHT22;46318;52.716;6.444;2023-01-19T01:28:45;2.30;99.90
60473;DHT22;46318;52.716;6.444;2023-01-19T01:31:10;2.30;99.90
60473;DHT22;46318;52.716;6.444;2023-01-19T01:33:36;2.30;99.90
60473;DHT22;46318;52.716;6.444;2023-01-19T01:36:03;2.30;99.90
60473;DHT22;46318;52.716;6.444;2023-01-19T01:38:29;2.30;99.90
60473;DHT22;46318;52.716;6.444;2023-01-19T01:40:55;2.30;99.90
60473;DHT22;46318;52.716;6.444;2023-01-19T01:43:20;2.30;99.90
60473;DHT22;46318;52.716;6.444;2023-01-19T01:45:46;2.20;99.90
60473;DHT22;46318;52.716;6.444;2023-01-19T01:48:20;2.20;99.90
60473;DHT22;46318;52.716;6.444;2023-01-19T01:50:54;2.20;99.90
60473;DHT22;46318;52.716;6.444;2023-01-19T01:53:44;2.30;99.90
60473;DHT22;46318;52.716;6.444;2023-01-19T01:56:16;2.30;99.90
60473;DHT22;46318;52.716;6.444;2023-01-19T01:58:45;2.20;99.90
60473;DHT22;46318;52.716;6.444;2023-01-19T02:01:11;2.30;99.90
60473;DHT22;46318;52.716;6.444;2023-01-19T02:03:57;2.20;99.90
60473;DHT22;46318;52.716;6.444;2023-01-19T02:06:23;2.20;99.90
60473;DHT22;46318;52.716;6.444;2023-01-19T02:09:02;2.30;99.90
60473;DHT22;46318;52.716;6.444;2023-01-19T02:11:50;2.20;99.90
60473;DHT22;46318;52.716;6.444;2023-01-19T02:14:35;2.30;99.90
60473;DHT22;46318;52.716;6.444;2023-01-19T02:17:04;2.20;99.90
60473;DHT22;46318;52.716;6.444;2023-01-19T02:19:40;2.30;99.90
60473;DHT22;46318;52.716;6.444;2023-01-19T02:24:55;2.20;99.90
60473;DHT22;46318;52.716;6.444;2023-01-19T02:27:22;2.30;99.90
60473;DHT22;46318;52.716;6.444;2023-01-19T02:29:47;2.30;99.90
60473;DHT22;46318;52.716;6.444;2023-01-19T02:32:13;2.30;99.90
60473;DHT22;46318;52.716;6.444;2023-01-19T02:34:39;2.30;99.90
60473;DHT22;46318;52.716;6.444;2023-01-19T02:37:11;2.30;99.90
60473;DHT22;46318;52.716;6.444;2023-01-19T02:39:46;2.30;99.90
60473;DHT22;46318;52.716;6.444;2023-01-19T02:42:22;2.30;99.90
60473;DHT22;46318;52.716;6.444;2023-01-19T02:44:52;2.30;99.90
60473;DHT22;46318;52.716;6.444;2023-01-19T02:47:19;2.30;99.90
60473;DHT22;46318;52.716;6.444;2023-01-19T02:49:59;2.30;99.90
60473;DHT22;46318;52.716;6.444;2023-01-19T02:52:26;2.30;99.90
60473;DHT22;46318;52.716;6.444;2023-01-19T03:03:56;2.30;99.90
60473;DHT22;46318;52.716;6.444;2023-01-19T03:06:50;2.20;99.90
60473;DHT22;46318;52.716;6.444;2023-01-19T03:12:29;2.20;99.90
60473;DHT22;46318;52.716;6.444;2023-01-19T03:15:13;2.20;99.90
60473;DHT22;46318;52.716;6.444;2023-01-19T03:17:47;2.20;99.90
60473;DHT22;46318;52.716;6.444;2023-01-19T03:20:16;2.20;99.90
60473;DHT22;46318;52.716;6.444;2023-01-19T03:22:48;2.20;99.90
60473;DHT22;46318;52.716;6.444;2023-01-19T03:25:18;2.20;99.90
60473;DHT22;46318;52.716;6.444;2023-01-19T03:27:46;2.20;99.90
60473;DHT22;46318;52.716;6.444;2023-01-19T03:30:23;2.20;99.90
60473;DHT22;46318;52.716;6.444;2023-01-19T03:33:29;2.20;99.90
60473;DHT22;46318;52.716;6.444;2023-01-19T03:35:57;2.20;99.90
60473;DHT22;46318;52.716;6.444;2023-01-19T03:38:32;2.20;99.90
60473;DHT22;46318;52.716;6.444;2023-01-19T03:41:03;2.20;99.90
60473;DHT22;46318;52.716;6.444;2023-01-19T03:43:32;2.20;99.90
60473;DHT22;46318;52.716;6.444;2023-01-19T03:46:02;2.20;99.90
60473;DHT22;46318;52.716;6.444;2023-01-19T03:48:29;2.10;99.90
60473;DHT22;46318;52.716;6.444;2023-01-19T03:50:55;2.10;99.90
60473;DHT22;46318;52.716;6.444;2023-01-19T03:53:21;2.10;99.90
60473;DHT22;46318;52.716;6.444;2023-01-19T03:55:50;2.10;99.90
60473;DHT22;46318;52.716;6.444;2023-01-19T03:58:16;2.10;99.90
60473;DHT22;46318;52.716;6.444;2023-01-19T04:00:42;2.10;99.90
60473;DHT22;46318;52.716;6.444;2023-01-19T04:03:15;2.10;99.90
60473;DHT22;46318;52.716;6.444;2023-01-19T04:05:42;2.10;99.90
60473;DHT22;46318;52.716;6.444;2023-01-19T04:08:09;2.10;99.90
60473;DHT22;46318;52.716;6.444;2023-01-19T04:10:35;2.10;99.90
60473;DHT22;46318;52.716;6.444;2023-01-19T04:13:02;2.10;99.90
60473;DHT22;46318;52.716;6.444;2023-01-19T04:15:29;2.10;99.90
60473;DHT22;46318;52.716;6.444;2023-01-19T04:17:59;2.10;99.90
60473;DHT22;46318;52.716;6.444;2023-01-19T04:20:26;2.10;99.90
60473;DHT22;46318;52.716;6.444;2023-01-19T04:22:53;2.10;99.90
60473;DHT22;46318;52.716;6.444;2023-01-19T04:25:20;2.10;99.90
60473;DHT22;46318;52.716;6.444;2023-01-19T04:27:50;2.10;99.90
60473;DHT22;46318;52.716;6.444;2023-01-19T04:30:17;2.10;99.90
60473;DHT22;46318;52.716;6.444;2023-01-19T04:32:44;2.10;99.90
60473;DHT22;46318;52.716;6.444;2023-01-19T04:35:10;2.10;99.90
60473;DHT22;46318;52.716;6.444;2023-01-19T04:37:35;2.10;99.90
60473;DHT22;46318;52.716;6.444;2023-01-19T04:40:01;2.10;99.90
60473;DHT22;46318;52.716;6.444;2023-01-19T04:42:27;2.10;99.90
60473;DHT22;46318;52.716;6.444;2023-01-19T04:44:53;2.10;99.90
60473;DHT22;46318;52.716;6.444;2023-01-19T04:47:19;2.10;99.90
60473;DHT22;46318;52.716;6.444;2023-01-19T04:49:45;2.10;99.90
60473;DHT22;46318;52.716;6.444;2023-01-19T04:52:11;2.10;99.90
60473;DHT22;46318;52.716;6.444;2023-01-19T04:54:37;2.20;99.90
60473;DHT22;46318;52.716;6.444;2023-01-19T04:57:03;2.20;99.90
60473;DHT22;46318;52.716;6.444;2023-01-19T04:59:28;2.20;99.90
60473;DHT22;46318;52.716;6.444;2023-01-19T05:01:54;2.20;99.90
60473;DHT22;46318;52.716;6.444;2023-01-19T05:04:21;2.20;99.90
60473;DHT22;46318;52.716;6.444;2023-01-19T05:06:47;2.20;99.90
60473;DHT22;46318;52.716;6.444;2023-01-19T05:09:13;2.30;99.90
60473;DHT22;46318;52.716;6.444;2023-01-19T05:11:40;2.30;99.90
60473;DHT22;46318;52.716;6.444;2023-01-19T05:14:06;2.30;99.90
60473;DHT22;46318;52.716;6.444;2023-01-19T05:16:32;2.40;99.90
60473;DHT22;46318;52.716;6.444;2023-01-19T05:18:59;2.50;99.90
60473;DHT22;46318;52.716;6.444;2023-01-19T05:21:25;2.50;99.90
60473;DHT22;46318;52.716;6.444;2023-01-19T05:23:51;2.60;99.90
60473;DHT22;46318;52.716;6.444;2023-01-19T05:26:17;2.60;99.90
60473;DHT22;46318;52.716;6.444;2023-01-19T05:28:43;2.70;99.90
60473;DHT22;46318;52.716;6.444;2023-01-19T05:31:08;2.80;99.90
60473;DHT22;46318;52.716;6.444;2023-01-19T05:33:34;2.80;99.90
60473;DHT22;46318;52.716;6.444;2023-01-19T05:36:00;2.90;99.90
60473;DHT22;46318;52.716;6.444;2023-01-19T05:38:26;3.00;99.90
60473;DHT22;46318;52.716;6.444;2023-01-19T05:40:56;3.00;99.90
60473;DHT22;46318;52.716;6.444;2023-01-19T05:43:23;3.10;99.90
60473;DHT22;46318;52.716;6.444;2023-01-19T05:45:52;3.10;99.90
60473;DHT22;46318;52.716;6.444;2023-01-19T05:48:18;3.10;99.90
60473;DHT22;46318;52.716;6.444;2023-01-19T05:50:44;3.10;99.90
60473;DHT22;46318;52.716;6.444;2023-01-19T05:53:10;3.10;99.90
60473;DHT22;46318;52.716;6.444;2023-01-19T05:55:36;3.20;99.90
60473;DHT22;46318;52.716;6.444;2023-01-19T05:58:01;3.20;99.90
60473;DHT22;46318;52.716;6.444;2023-01-19T06:00:27;3.20;99.90
60473;DHT22;46318;52.716;6.444;2023-01-19T06:02:53;3.20;99.90
60473;DHT22;46318;52.716;6.444;2023-01-19T06:05:19;3.20;99.90
60473;DHT22;46318;52.716;6.444;2023-01-19T06:07:45;3.20;99.90
60473;DHT22;46318;52.716;6.444;2023-01-19T06:10:11;3.20;99.90
60473;DHT22;46318;52.716;6.444;2023-01-19T06:12:40;3.20;99.90
60473;DHT22;46318;52.716;6.444;2023-01-19T06:15:06;3.20;99.90
60473;DHT22;46318;52.716;6.444;2023-01-19T06:17:33;3.20;99.90
60473;DHT22;46318;52.716;6.444;2023-01-19T06:19:59;3.20;99.90
60473;DHT22;46318;52.716;6.444;2023-01-19T06:22:25;3.10;99.90
60473;DHT22;46318;52.716;6.444;2023-01-19T06:24:50;3.10;99.90
60473;DHT22;46318;52.716;6.444;2023-01-19T06:27:16;3.10;99.90
60473;DHT22;46318;52.716;6.444;2023-01-19T06:29:42;3.10;99.90
60473;DHT22;46318;52.716;6.444;2023-01-19T06:32:08;3.10;99.90
60473;DHT22;46318;52.716;6.444;2023-01-19T06:34:34;3.10;99.90
60473;DHT22;46318;52.716;6.444;2023-01-19T06:37:00;3.10;99.90
60473;DHT22;46318;52.716;6.444;2023-01-19T06:39:26;3.10;99.90
60473;DHT22;46318;52.716;6.444;2023-01-19T06:41:52;3.10;99.90
60473;DHT22;46318;52.716;6.444;2023-01-19T06:44:17;3.00;99.90
60473;DHT22;46318;52.716;6.444;2023-01-19T06:46:43;3.00;99.90
60473;DHT22;46318;52.716;6.444;2023-01-19T06:49:09;3.00;99.90
60473;DHT22;46318;52.716;6.444;2023-01-19T06:51:35;3.00;99.90
60473;DHT22;46318;52.716;6.444;2023-01-19T06:54:01;3.00;99.90
60473;DHT22;46318;52.716;6.444;2023-01-19T06:56:27;3.00;99.90
60473;DHT22;46318;52.716;6.444;2023-01-19T06:58:53;3.00;99.90
60473;DHT22;46318;52.716;6.444;2023-01-19T07:01:19;3.00;99.90
60473;DHT22;46318;52.716;6.444;2023-01-19T07:03:45;3.10;99.90
60473;DHT22;46318;52.716;6.444;2023-01-19T07:06:11;3.00;99.90
60473;DHT22;46318;52.716;6.444;2023-01-19T07:08:40;3.10;99.90
60473;DHT22;46318;52.716;6.444;2023-01-19T07:11:09;3.10;99.90
60473;DHT22;46318;52.716;6.444;2023-01-19T07:13:38;3.10;99.90
60473;DHT22;46318;52.716;6.444;2023-01-19T07:16:10;3.10;99.90
60473;DHT22;46318;52.716;6.444;2023-01-19T07:18:37;3.10;99.90
60473;DHT22;46318;52.716;6.444;2023-01-19T07:21:05;3.00;99.90
60473;DHT22;46318;52.716;6.444;2023-01-19T07:23:31;3.10;99.90
60473;DHT22;46318;52.716;6.444;2023-01-19T07:25:58;3.10;99.90
60473;DHT22;46318;52.716;6.444;2023-01-19T07:28:28;3.10;99.90
60473;DHT22;46318;52.716;6.444;2023-01-19T07:30:55;3.10;99.90
60473;DHT22;46318;52.716;6.444;2023-01-19T07:33:23;3.10;99.90
60473;DHT22;46318;52.716;6.444;2023-01-19T07:35:51;3.10;99.90
60473;DHT22;46318;52.716;6.444;2023-01-19T07:38:18;3.10;99.90
60473;DHT22;46318;52.716;6.444;2023-01-19T07:40:44;3.10;99.90
60473;DHT22;46318;52.716;6.444;2023-01-19T07:43:13;3.10;99.90
60473;DHT22;46318;52.716;6.444;2023-01-19T07:45:40;3.10;99.90
60473;DHT22;46318;52.716;6.444;2023-01-19T07:48:06;3.10;99.90
60473;DHT22;46318;52.716;6.444;2023-01-19T07:50:32;3.10;99.90
60473;DHT22;46318;52.716;6.444;2023-01-19T07:53:04;3.10;99.90
60473;DHT22;46318;52.716;6.444;2023-01-19T07:55:31;3.10;99.90
60473;DHT22;46318;52.716;6.444;2023-01-19T07:57:57;3.00;99.90
60473;DHT22;46318;52.716;6.444;2023-01-19T08:00:23;3.10;99.90
60473;DHT22;46318;52.716;6.444;2023-01-19T08:02:50;3.10;99.90
60473;DHT22;46318;52.716;6.444;2023-01-19T08:05:18;3.10;99.90
60473;DHT22;46318;52.716;6.444;2023-01-19T08:07:45;3.10;99.90
60473;DHT22;46318;52.716;6.444;2023-01-19T08:10:16;3.10;99.90
60473;DHT22;46318;52.716;6.444;2023-01-19T08:12:42;3.10;99.90
60473;DHT22;46318;52.716;6.444;2023-01-19T08:15:10;3.10;99.90
60473;DHT22;46318;52.716;6.444;2023-01-19T08:17:36;3.10;99.90
60473;DHT22;46318;52.716;6.444;2023-01-19T08:20:03;3.10;99.90
60473;DHT22;46318;52.716;6.444;2023-01-19T08:22:31;3.10;99.90
60473;DHT22;46318;52.716;6.444;2023-01-19T08:24:56;3.10;99.90
60473;DHT22;46318;52.716;6.444;2023-01-19T08:27:22;3.20;99.90
60473;DHT22;46318;52.716;6.444;2023-01-19T08:29:48;3.20;99.90
60473;DHT22;46318;52.716;6.444;2023-01-19T08:32:14;3.20;99.90
60473;DHT22;46318;52.716;6.444;2023-01-19T08:34:40;3.20;99.90
60473;DHT22;46318;52.716;6.444;2023-01-19T08:37:06;3.20;99.90
60473;DHT22;46318;52.716;6.444;2023-01-19T08:39:32;3.20;99.90
60473;DHT22;46318;52.716;6.444;2023-01-19T08:41:58;3.20;99.90
60473;DHT22;46318;52.716;6.444;2023-01-19T08:44:26;3.20;99.90
60473;DHT22;46318;52.716;6.444;2023-01-19T08:46:52;3.20;99.90
60473;DHT22;46318;52.716;6.444;2023-01-19T08:49:18;3.20;99.90
60473;DHT22;46318;52.716;6.444;2023-01-19T08:51:45;3.20;99.90
60473;DHT22;46318;52.716;6.444;2023-01-19T08:54:12;3.20;99.90
60473;DHT22;46318;52.716;6.444;2023-01-19T08:56:38;3.20;99.90
60473;DHT22;46318;52.716;6.444;2023-01-19T08:59:04;3.20;99.90
60473;DHT22;46318;52.716;6.444;2023-01-19T09:01:30;3.20;99.90
60473;DHT22;46318;52.716;6.444;2023-01-19T09:03:56;3.20;99.90
60473;DHT22;46318;52.716;6.444;2023-01-19T09:06:21;3.10;99.90
60473;DHT22;46318;52.716;6.444;2023-01-19T09:08:49;3.20;99.90
60473;DHT22;46318;52.716;6.444;2023-01-19T09:11:15;3.20;99.90
60473;DHT22;46318;52.716;6.444;2023-01-19T09:13:42;3.10;99.90
60473;DHT22;46318;52.716;6.444;2023-01-19T09:16:08;3.10;99.90
60473;DHT22;46318;52.716;6.444;2023-01-19T09:18:36;3.10;99.90
60473;DHT22;46318;52.716;6.444;2023-01-19T09:21:02;3.20;99.90
60473;DHT22;46318;52.716;6.444;2023-01-19T09:23:29;3.20;99.90
60473;DHT22;46318;52.716;6.444;2023-01-19T09:26:00;3.20;99.90
60473;DHT22;46318;52.716;6.444;2023-01-19T09:28:27;3.20;99.90
60473;DHT22;46318;52.716;6.444;2023-01-19T09:30:54;3.20;99.90
60473;DHT22;46318;52.716;6.444;2023-01-19T09:33:20;3.20;99.90
60473;DHT22;46318;52.716;6.444;2023-01-19T09:35:47;3.30;99.90
60473;DHT22;46318;52.716;6.444;2023-01-19T09:38:15;3.30;99.90
60473;DHT22;46318;52.716;6.444;2023-01-19T09:40:48;3.30;99.90
60473;DHT22;46318;52.716;6.444;2023-01-19T09:45:55;3.30;99.90
60473;DHT22;46318;52.716;6.444;2023-01-19T09:48:51;3.40;99.90
60473;DHT22;46318;52.716;6.444;2023-01-19T09:51:22;3.40;99.90
60473;DHT22;46318;52.716;6.444;2023-01-19T09:56:47;3.50;99.90
60473;DHT22;46318;52.716;6.444;2023-01-19T09:59:23;3.50;99.90
60473;DHT22;46318;52.716;6.444;2023-01-19T10:02:18;3.60;99.90
60473;DHT22;46318;52.716;6.444;2023-01-19T10:04:59;3.70;99.90
60473;DHT22;46318;52.716;6.444;2023-01-19T10:10:30;3.90;99.90
60473;DHT22;46318;52.716;6.444;2023-01-19T10:18:45;4.10;99.90
60473;DHT22;46318;52.716;6.444;2023-01-19T10:21:26;4.20;99.90
60473;DHT22;46318;52.716;6.444;2023-01-19T10:26:50;4.30;99.90
60473;DHT22;46318;52.716;6.444;2023-01-19T10:29:31;4.40;99.90
60473;DHT22;46318;52.716;6.444;2023-01-19T10:32:28;4.50;99.90
60473;DHT22;46318;52.716;6.444;2023-01-19T10:34:57;4.60;99.90
60473;DHT22;46318;52.716;6.444;2023-01-19T10:37:33;4.70;99.90
60473;DHT22;46318;52.716;6.444;2023-01-19T10:42:33;4.80;99.90
60473;DHT22;46318;52.716;6.444;2023-01-19T10:45:20;4.90;99.90
60473;DHT22;46318;52.716;6.444;2023-01-19T10:47:49;5.00;99.90
60473;DHT22;46318;52.716;6.444;2023-01-19T10:50:28;5.10;99.90
60473;DHT22;46318;52.716;6.444;2023-01-19T10:52:58;5.10;99.90
60473;DHT22;46318;52.716;6.444;2023-01-19T10:55:38;5.20;99.90
60473;DHT22;46318;52.716;6.444;2023-01-19T10:58:28;5.20;99.90
60473;DHT22;46318;52.716;6.444;2023-01-19T11:00:55;5.30;99.90
60473;DHT22;46318;52.716;6.444;2023-01-19T11:03:46;5.30;99.90
60473;DHT22;46318;52.716;6.444;2023-01-19T11:08:43;5.50;99.90
60473;DHT22;46318;52.716;6.444;2023-01-19T11:11:11;5.50;99.90
60473;DHT22;46318;52.716;6.444;2023-01-19T11:13:38;5.60;99.90
60473;DHT22;46318;52.716;6.444;2023-01-19T11:16:15;5.60;99.90
60473;DHT22;46318;52.716;6.444;2023-01-19T11:18:49;5.70;99.90
60473;DHT22;46318;52.716;6.444;2023-01-19T11:21:22;5.80;99.90
60473;DHT22;46318;52.716;6.444;2023-01-19T11:24:01;5.80;99.90
60473;DHT22;46318;52.716;6.444;2023-01-19T11:26:45;5.80;99.90
60473;DHT22;46318;52.716;6.444;2023-01-19T11:29:24;5.90;99.90
60473;DHT22;46318;52.716;6.444;2023-01-19T11:31:51;5.90;99.90
60473;DHT22;46318;52.716;6.444;2023-01-19T11:34:35;5.90;99.90
60473;DHT22;46318;52.716;6.444;2023-01-19T11:37:25;6.00;99.90
60473;DHT22;46318;52.716;6.444;2023-01-19T11:39:56;6.00;99.90
60473;DHT22;46318;52.716;6.444;2023-01-19T11:42:24;6.10;99.90
60473;DHT22;46318;52.716;6.444;2023-01-19T11:45:12;6.10;99.90
60473;DHT22;46318;52.716;6.444;2023-01-19T11:47:43;6.20;99.90
60473;DHT22;46318;52.716;6.444;2023-01-19T11:53:06;6.40;99.90
60473;DHT22;46318;52.716;6.444;2023-01-19T11:55:55;6.40;99.90
60473;DHT22;46318;52.716;6.444;2023-01-19T11:58:23;6.50;99.90
60473;DHT22;46318;52.716;6.444;2023-01-19T12:03:36;6.50;99.90
60473;DHT22;46318;52.716;6.444;2023-01-19T12:06:13;6.60;99.90
60473;DHT22;46318;52.716;6.444;2023-01-19T12:11:43;6.60;99.90
60473;DHT22;46318;52.716;6.444;2023-01-19T12:17:12;6.50;99.90
60473;DHT22;46318;52.716;6.444;2023-01-19T12:19:46;6.40;99.90
60473;DHT22;46318;52.716;6.444;2023-01-19T12:22:19;6.40;99.90
60473;DHT22;46318;52.716;6.444;2023-01-19T12:24:50;6.40;99.90
60473;DHT22;46318;52.716;6.444;2023-01-19T12:27:38;6.30;99.90
60473;DHT22;46318;52.716;6.444;2023-01-19T12:30:27;6.30;99.90
60473;DHT22;46318;52.716;6.444;2023-01-19T12:33:20;6.20;99.90
60473;DHT22;46318;52.716;6.444;2023-01-19T12:38:32;6.20;99.90
60473;DHT22;46318;52.716;6.444;2023-01-19T12:46:42;6.10;99.90
60473;DHT22;46318;52.716;6.444;2023-01-19T12:49:20;6.10;99.90
60473;DHT22;46318;52.716;6.444;2023-01-19T12:52:09;6.00;99.90
60473;DHT22;46318;52.716;6.444;2023-01-19T12:55:19;5.90;99.90
60473;DHT22;46318;52.716;6.444;2023-01-19T13:00:38;5.90;99.90
60473;DHT22;46318;52.716;6.444;2023-01-19T13:13:33;5.80;99.90
60473;DHT22;46318;52.716;6.444;2023-01-19T13:18:52;5.80;99.90
60473;DHT22;46318;52.716;6.444;2023-01-19T13:21:44;5.80;99.90
60473;DHT22;46318;52.716;6.444;2023-01-19T13:24:19;5.80;99.90
60473;DHT22;46318;52.716;6.444;2023-01-19T13:29:32;5.70;99.90
60473;DHT22;46318;52.716;6.444;2023-01-19T13:32:02;5.70;99.90
60473;DHT22;46318;52.716;6.444;2023-01-19T13:34:55;5.70;99.90
60473;DHT22;46318;52.716;6.444;2023-01-19T13:37:25;5.70;99.90
60473;DHT22;46318;52.716;6.444;2023-01-19T13:39:59;5.60;99.90
60473;DHT22;46318;52.716;6.444;2023-01-19T13:42:35;5.60;99.90
60473;DHT22;46318;52.716;6.444;2023-01-19T13:47:51;5.60;99.90
60473;DHT22;46318;52.716;6.444;2023-01-19T13:50:27;5.60;99.90
60473;DHT22;46318;52.716;6.444;2023-01-19T13:52:58;5.50;99.90
60473;DHT22;46318;52.716;6.444;2023-01-19T13:55:26;5.50;99.90
60473;DHT22;46318;52.716;6.444;2023-01-19T13:57:55;5.50;99.90
60473;DHT22;46318;52.716;6.444;2023-01-19T14:03:12;5.50;99.90
60473;DHT22;46318;52.716;6.444;2023-01-19T14:05:49;5.50;99.90
60473;DHT22;46318;52.716;6.444;2023-01-19T14:08:16;5.50;99.90
60473;DHT22;46318;52.716;6.444;2023-01-19T14:13:28;5.40;99.90
60473;DHT22;46318;52.716;6.444;2023-01-19T14:16:06;5.40;99.90
60473;DHT22;46318;52.716;6.444;2023-01-19T14:18:35;5.40;99.90
60473;DHT22;46318;52.716;6.444;2023-01-19T14:21:07;5.40;99.90
60473;DHT22;46318;52.716;6.444;2023-01-19T14:24:08;5.40;99.90
60473;DHT22;46318;52.716;6.444;2023-01-19T14:26:50;5.40;99.90
60473;DHT22;46318;52.716;6.444;2023-01-19T14:29:24;5.30;99.90
60473;DHT22;46318;52.716;6.444;2023-01-19T14:32:17;5.30;99.90
60473;DHT22;46318;52.716;6.444;2023-01-19T14:37:31;5.30;99.90
60473;DHT22;46318;52.716;6.444;2023-01-19T14:42:58;5.30;99.90
60473;DHT22;46318;52.716;6.444;2023-01-19T14:45:38;5.30;99.90
60473;DHT22;46318;52.716;6.444;2023-01-19T14:48:18;5.20;99.90
60473;DHT22;46318;52.716;6.444;2023-01-19T14:50:47;5.20;99.90
60473;DHT22;46318;52.716;6.444;2023-01-19T14:53:17;5.20;99.90
60473;DHT22;46318;52.716;6.444;2023-01-19T14:55:55;5.20;99.90
60473;DHT22;46318;52.716;6.444;2023-01-19T14:58:25;5.20;99.90
60473;DHT22;46318;52.716;6.444;2023-01-19T15:00:52;5.20;99.90
60473;DHT22;46318;52.716;6.444;2023-01-19T15:03:24;5.20;99.90
60473;DHT22;46318;52.716;6.444;2023-01-19T15:05:52;5.10;99.90
60473;DHT22;46318;52.716;6.444;2023-01-19T15:08:28;5.10;99.90
60473;DHT22;46318;52.716;6.444;2023-01-19T15:10:56;5.10;99.90
60473;DHT22;46318;52.716;6.444;2023-01-19T15:13:24;5.10;99.90
60473;DHT22;46318;52.716;6.444;2023-01-19T15:15:52;5.10;99.90
60473;DHT22;46318;52.716;6.444;2023-01-19T15:18:23;5.10;99.90
60473;DHT22;46318;52.716;6.444;2023-01-19T15:20:51;5.10;99.90
60473;DHT22;46318;52.716;6.444;2023-01-19T15:23:19;5.10;99.90
60473;DHT22;46318;52.716;6.444;2023-01-19T15:25:46;5.10;99.90
60473;DHT22;46318;52.716;6.444;2023-01-19T15:28:18;5.10;99.90
60473;DHT22;46318;52.716;6.444;2023-01-19T15:30:44;5.10;99.90
60473;DHT22;46318;52.716;6.444;2023-01-19T15:33:24;5.10;99.90
60473;DHT22;46318;52.716;6.444;2023-01-19T15:35:52;5.10;99.90
60473;DHT22;46318;52.716;6.444;2023-01-19T15:38:18;5.00;99.90
60473;DHT22;46318;52.716;6.444;2023-01-19T15:40:45;5.00;99.90
60473;DHT22;46318;52.716;6.444;2023-01-19T15:43:12;5.00;99.90
60473;DHT22;46318;52.716;6.444;2023-01-19T15:45:41;5.00;99.90
60473;DHT22;46318;52.716;6.444;2023-01-19T15:48:26;5.00;99.90
60473;DHT22;46318;52.716;6.444;2023-01-19T15:50:52;5.00;99.90
60473;DHT22;46318;52.716;6.444;2023-01-19T15:53:19;5.00;99.90
60473;DHT22;46318;52.716;6.444;2023-01-19T15:55:50;4.90;99.90
60473;DHT22;46318;52.716;6.444;2023-01-19T15:58:17;4.90;99.90
60473;DHT22;46318;52.716;6.444;2023-01-19T16:00:45;4.90;99.90
60473;DHT22;46318;52.716;6.444;2023-01-19T16:03:17;4.80;99.90
60473;DHT22;46318;52.716;6.444;2023-01-19T16:05:43;4.80;99.90
60473;DHT22;46318;52.716;6.444;2023-01-19T16:08:11;4.80;99.90
60473;DHT22;46318;52.716;6.444;2023-01-19T16:10:37;4.80;99.90
60473;DHT22;46318;52.716;6.444;2023-01-19T16:13:03;4.70;99.90
60473;DHT22;46318;52.716;6.444;2023-01-19T16:15:29;4.70;99.90
60473;DHT22;46318;52.716;6.444;2023-01-19T16:17:55;4.70;99.90
60473;DHT22;46318;52.716;6.444;2023-01-19T16:20:20;4.70;99.90
60473;DHT22;46318;52.716;6.444;2023-01-19T16:22:46;4.70;99.90
60473;DHT22;46318;52.716;6.444;2023-01-19T16:25:12;4.60;99.90
60473;DHT22;46318;52.716;6.444;2023-01-19T16:27:38;4.60;99.90
60473;DHT22;46318;52.716;6.444;2023-01-19T16:30:04;4.60;99.90
60473;DHT22;46318;52.716;6.444;2023-01-19T16:32:32;4.60;99.90
60473;DHT22;46318;52.716;6.444;2023-01-19T16:34:59;4.60;99.90
60473;DHT22;46318;52.716;6.444;2023-01-19T16:37:25;4.60;99.90
60473;DHT22;46318;52.716;6.444;2023-01-19T16:39:51;4.50;99.90
60473;DHT22;46318;52.716;6.444;2023-01-19T16:42:19;4.50;99.90
60473;DHT22;46318;52.716;6.444;2023-01-19T16:44:45;4.50;99.90
60473;DHT22;46318;52.716;6.444;2023-01-19T16:47:10;4.50;99.90
60473;DHT22;46318;52.716;6.444;2023-01-19T16:49:36;4.40;99.90
60473;DHT22;46318;52.716;6.444;2023-01-19T16:52:02;4.40;99.90
60473;DHT22;46318;52.716;6.444;2023-01-19T16:54:28;4.30;99.90
60473;DHT22;46318;52.716;6.444;2023-01-19T16:56:56;4.30;99.90
60473;DHT22;46318;52.716;6.444;2023-01-19T16:59:23;4.30;99.90
60473;DHT22;46318;52.716;6.444;2023-01-19T17:01:50;4.20;99.90
60473;DHT22;46318;52.716;6.444;2023-01-19T17:04:17;4.20;99.90
60473;DHT22;46318;52.716;6.444;2023-01-19T17:06:45;4.20;99.90
60473;DHT22;46318;52.716;6.444;2023-01-19T17:09:15;4.10;99.90
60473;DHT22;46318;52.716;6.444;2023-01-19T17:11:41;4.00;99.90
60473;DHT22;46318;52.716;6.444;2023-01-19T17:14:15;4.00;99.90
60473;DHT22;46318;52.716;6.444;2023-01-19T17:16:44;4.00;99.90
60473;DHT22;46318;52.716;6.444;2023-01-19T17:19:16;3.90;99.90
60473;DHT22;46318;52.716;6.444;2023-01-19T17:21:44;3.90;99.90
60473;DHT22;46318;52.716;6.444;2023-01-19T17:24:14;3.80;99.90
60473;DHT22;46318;52.716;6.444;2023-01-19T17:26:41;3.80;99.90
60473;DHT22;46318;52.716;6.444;2023-01-19T17:29:08;3.80;99.90
60473;DHT22;46318;52.716;6.444;2023-01-19T17:31:35;3.70;99.90